createdAt,value
2023-05-04T00:01:02.389Z,102508.06
2023-05-04T00:03:28.965Z,102513.53
2023-05-04T00:05:55.614Z,102510.50
2023-05-04T00:08:22.085Z,102507.53
2023-05-04T00:10:48.612Z,102503.19
2023-05-04T00:13:15.197Z,102491.56
2023-05-04T00:15:41.946Z,102495.22
2023-05-04T00:18:08.664Z,102493.03
2023-05-04T00:20:35.147Z,102491.22
2023-05-04T00:23:01.636Z,102488.91
2023-05-04T00:25:28.128Z,102478.28
2023-05-04T00:27:54.616Z,102481.22
2023-05-04T00:30:21.158Z,102481.69
2023-05-04T00:32:47.689Z,102475.34
2023-05-04T00:35:14.227Z,102472.56
2023-05-04T00:37:40.927Z,102476.75
2023-05-04T00:40:08.960Z,102475.53
2023-05-04T00:42:35.467Z,102468.22
2023-05-04T00:45:01.966Z,102468.75
2023-05-04T00:47:29.945Z,102465.19
2023-05-04T00:49:56.577Z,102464.25
2023-05-04T00:52:24.266Z,102462.19
2023-05-04T00:54:52.044Z,102468.91
2023-05-04T00:57:18.519Z,102465.94
2023-05-04T00:59:45.018Z,102458.69
2023-05-04T01:02:11.678Z,102466.69
2023-05-04T01:04:38.297Z,102463.75
2023-05-04T01:07:25.025Z,102451.94
2023-05-04T01:10:02.104Z,102444.72
2023-05-04T01:12:41.569Z,102453.53
2023-05-04T01:15:09.827Z,102438.09
2023-05-04T01:17:36.563Z,102454.13
2023-05-04T01:20:04.161Z,102446.09
2023-05-04T01:22:30.902Z,102443.38
2023-05-04T01:24:57.376Z,102442.97
2023-05-04T01:27:23.824Z,102441.66
2023-05-04T01:29:53.233Z,102433.19
2023-05-04T01:32:21.076Z,102441.31
2023-05-04T01:34:48.004Z,102431.56
2023-05-04T01:37:14.795Z,102430.06
2023-05-04T01:39:41.274Z,102431.97
2023-05-04T01:42:07.773Z,102433.81
2023-05-04T01:44:34.379Z,102426.66
2023-05-04T01:47:00.925Z,102432.06
2023-05-04T01:49:27.373Z,102427.59
2023-05-04T01:51:53.820Z,102417.94
2023-05-04T01:54:20.267Z,102432.44
2023-05-04T01:56:46.789Z,102426.38
2023-05-04T01:59:13.273Z,102425.13
2023-05-04T02:01:39.804Z,102424.09
2023-05-04T02:04:06.338Z,102425.91
2023-05-04T02:06:33.014Z,102430.44
2023-05-04T02:08:59.630Z,102422.91
2023-05-04T02:11:26.256Z,102424.69
2023-05-04T02:13:53.834Z,102423.19
2023-05-04T02:16:20.394Z,102429.06
2023-05-04T02:18:46.953Z,102424.34
2023-05-04T02:21:13.757Z,102422.19
2023-05-04T02:23:40.206Z,102422.25
2023-05-04T02:26:06.730Z,102420.75
2023-05-04T02:28:33.194Z,102423.13
2023-05-04T02:30:59.704Z,102424.47
2023-05-04T02:33:26.208Z,102423.63
2023-05-04T02:35:52.647Z,102420.03
2023-05-04T02:38:19.148Z,102414.88
2023-05-04T02:40:45.582Z,102416.44
2023-05-04T02:43:12.100Z,102423.06
2023-05-04T02:45:38.653Z,102416.84
2023-05-04T02:48:05.492Z,102416.53
2023-05-04T02:50:32.015Z,102415.91
2023-05-04T02:52:58.562Z,102408.63
2023-05-04T02:55:25.031Z,102420.06
2023-05-04T02:57:51.483Z,102415.31
2023-05-04T03:00:18.194Z,102420.56
2023-05-04T03:02:44.676Z,102412.84
2023-05-04T03:05:11.356Z,102400.16
2023-05-04T03:07:37.826Z,102413.53
2023-05-04T03:10:04.805Z,102412.72
2023-05-04T03:12:31.608Z,102412.72
2023-05-04T03:14:58.112Z,102401.38
2023-05-04T03:17:24.584Z,102402.84
2023-05-04T03:19:51.048Z,102404.00
2023-05-04T03:22:17.560Z,102408.78
2023-05-04T03:24:44.119Z,102414.94
2023-05-04T03:27:10.657Z,102407.97
2023-05-04T03:29:37.105Z,102411.78
2023-05-04T03:32:03.721Z,102402.72
2023-05-04T03:34:30.236Z,102403.50
2023-05-04T03:36:58.243Z,102403.09
2023-05-04T03:39:24.727Z,102413.13
2023-05-04T03:41:52.601Z,102412.09
2023-05-04T03:44:19.145Z,102410.88
2023-05-04T03:46:45.585Z,102407.97
2023-05-04T03:49:12.070Z,102416.88
2023-05-04T03:51:38.503Z,102419.19
2023-05-04T03:54:05.061Z,102409.50
2023-05-04T03:56:31.545Z,102407.47
2023-05-04T03:58:58.015Z,102413.72
2023-05-04T04:01:25.322Z,102412.81
2023-05-04T04:03:51.886Z,102416.47
2023-05-04T04:06:18.405Z,102417.88
2023-05-04T04:08:44.865Z,102419.63
2023-05-04T04:11:11.315Z,102416.75
2023-05-04T04:13:37.775Z,102422.47
2023-05-04T04:16:04.716Z,102418.84
2023-05-04T04:18:31.494Z,102395.94
2023-05-04T04:20:58.018Z,102395.78
2023-05-04T04:23:25.401Z,102398.38
2023-05-04T04:25:53.795Z,102414.38
2023-05-04T04:28:20.308Z,102396.19
2023-05-04T04:30:46.765Z,102406.88
2023-05-04T04:33:13.237Z,102410.97
2023-05-04T04:35:39.843Z,102401.69
2023-05-04T04:38:07.019Z,102388.31
2023-05-04T04:40:33.452Z,102401.59
2023-05-04T04:42:59.985Z,102397.25
2023-05-04T04:45:26.441Z,102400.09
2023-05-04T04:47:53.036Z,102402.97
2023-05-04T04:50:19.524Z,102401.06
2023-05-04T04:52:46.389Z,102402.78
2023-05-04T04:55:13.375Z,102403.00
2023-05-04T04:57:39.866Z,102408.13
2023-05-04T05:00:10.216Z,102401.88
2023-05-04T05:02:37.033Z,102398.94
2023-05-04T05:05:03.969Z,102404.69
2023-05-04T05:07:30.714Z,102399.59
2023-05-04T05:09:57.227Z,102404.19
2023-05-04T05:12:23.729Z,102408.06
2023-05-04T05:14:50.908Z,102393.59
2023-05-04T05:17:18.103Z,102397.00
2023-05-04T05:19:44.641Z,102391.03
2023-05-04T05:22:11.088Z,102385.44
2023-05-04T05:24:37.578Z,102392.16
2023-05-04T05:27:04.038Z,102398.47
2023-05-04T05:29:30.976Z,102404.63
2023-05-04T05:31:57.414Z,102399.69
2023-05-04T05:34:23.879Z,102398.06
2023-05-04T05:36:50.338Z,102398.31
2023-05-04T05:39:16.912Z,102409.22
2023-05-04T05:41:43.383Z,102404.03
2023-05-04T05:44:11.720Z,102402.91
2023-05-04T05:46:39.564Z,102404.91
2023-05-04T05:49:07.416Z,102402.53
2023-05-04T05:51:34.028Z,102405.56
2023-05-04T05:54:00.782Z,102399.06
2023-05-04T05:56:27.228Z,102399.84
2023-05-04T05:58:53.773Z,102397.69
2023-05-04T06:01:20.245Z,102404.88
2023-05-04T06:03:47.022Z,102408.75
2023-05-04T06:06:13.807Z,102409.19
2023-05-04T06:08:41.532Z,102405.34
2023-05-04T06:11:07.962Z,102400.97
2023-05-04T06:13:34.476Z,102394.41
2023-05-04T06:16:01.033Z,102397.34
2023-05-04T06:18:27.551Z,102387.22
2023-05-04T06:21:00.959Z,102384.78
2023-05-04T06:23:28.800Z,102387.09
2023-05-04T06:25:55.312Z,102382.50
2023-05-04T06:28:21.902Z,102380.41
2023-05-04T06:30:48.635Z,102388.38
2023-05-04T06:33:15.279Z,102393.47
2023-05-04T06:35:42.108Z,102386.16
2023-05-04T06:38:08.604Z,102394.66
2023-05-04T06:40:35.376Z,102395.06
2023-05-04T06:43:02.061Z,102386.09
2023-05-04T06:45:28.759Z,102381.84
2023-05-04T06:47:55.243Z,102378.97
2023-05-04T06:50:24.008Z,102388.50
2023-05-04T06:52:50.793Z,102382.41
2023-05-04T06:55:17.389Z,102382.47
2023-05-04T06:57:43.855Z,102384.09
2023-05-04T07:00:10.820Z,102385.81
2023-05-04T07:02:37.251Z,102389.59
2023-05-04T07:05:03.978Z,102385.28
2023-05-04T07:07:30.450Z,102375.13
2023-05-04T07:09:56.922Z,102376.81
2023-05-04T07:12:23.377Z,102359.56
2023-05-04T07:14:50.060Z,102370.69
2023-05-04T07:17:16.604Z,102369.84
2023-05-04T07:19:43.078Z,102371.16
2023-05-04T07:22:09.771Z,102362.50
2023-05-04T07:24:36.231Z,102361.25
2023-05-04T07:27:03.212Z,102367.22
2023-05-04T07:29:29.824Z,102371.47
2023-05-04T07:31:56.274Z,102364.50
2023-05-04T07:34:27.644Z,102368.66
2023-05-04T07:37:00.722Z,102371.31
2023-05-04T07:39:27.178Z,102357.78
2023-05-04T07:41:54.411Z,102360.44
2023-05-04T07:44:20.960Z,102363.31
2023-05-04T07:46:47.415Z,102363.34
2023-05-04T07:49:13.949Z,102357.69
2023-05-04T07:51:40.420Z,102343.66
2023-05-04T07:54:06.986Z,102343.66
2023-05-04T07:56:33.470Z,102334.59
2023-05-04T07:58:59.972Z,102340.66
2023-05-04T08:01:26.435Z,102333.63
2023-05-04T08:03:52.907Z,102337.88
2023-05-04T08:06:19.333Z,102334.13
2023-05-04T08:08:46.592Z,102335.81
2023-05-04T08:11:20.673Z,102334.56
2023-05-04T08:13:50.719Z,102325.38
2023-05-04T08:16:17.589Z,102323.53
2023-05-04T08:18:44.493Z,102314.94
2023-05-04T08:21:10.955Z,102322.00
2023-05-04T08:23:37.520Z,102314.97
2023-05-04T08:26:04.813Z,102318.13
2023-05-04T08:28:35.306Z,102312.75
2023-05-04T08:31:03.272Z,102296.75
2023-05-04T08:33:30.492Z,102298.66
2023-05-04T08:35:59.550Z,102290.69
2023-05-04T08:38:26.688Z,102294.50
2023-05-04T08:40:54.929Z,102293.97
2023-05-04T08:43:22.199Z,102289.94
2023-05-04T08:45:51.726Z,102285.97
2023-05-04T08:48:18.998Z,102281.66
2023-05-04T08:50:46.184Z,102287.00
2023-05-04T08:53:13.966Z,102284.78
2023-05-04T08:55:42.476Z,102289.41
2023-05-04T08:58:10.964Z,102285.94
2023-05-04T09:00:38.826Z,102282.78
2023-05-04T09:03:10.520Z,102295.38
2023-05-04T09:05:38.380Z,102285.97
2023-05-04T09:08:05.649Z,102283.06
2023-05-04T09:10:33.370Z,102270.94
2023-05-04T09:13:00.007Z,102274.69
2023-05-04T09:15:26.619Z,102277.97
2023-05-04T09:18:03.914Z,102283.88
2023-05-04T09:20:31.519Z,102278.44
2023-05-04T09:23:09.154Z,102276.84
2023-05-04T09:25:55.273Z,102276.75
2023-05-04T09:28:37.461Z,102270.31
2023-05-04T09:31:04.498Z,102277.78
2023-05-04T09:33:32.038Z,102272.84
2023-05-04T09:36:15.926Z,102265.50
2023-05-04T09:38:42.530Z,102273.28
2023-05-04T09:41:09.409Z,102265.34
2023-05-04T09:43:43.941Z,102249.66
2023-05-04T09:46:20.126Z,102253.06
2023-05-04T09:48:57.168Z,102262.03
2023-05-04T09:51:25.943Z,102263.31
2023-05-04T09:53:52.804Z,102247.16
2023-05-04T09:56:38.744Z,102258.41
2023-05-04T09:59:05.918Z,102239.50
2023-05-04T10:01:32.556Z,102252.34
2023-05-04T10:03:59.208Z,102241.09
2023-05-04T10:06:28.906Z,102238.66
2023-05-04T10:08:56.507Z,102239.72
2023-05-04T10:11:25.797Z,102238.63
2023-05-04T10:13:55.890Z,102235.22
2023-05-04T10:16:38.827Z,102223.94
2023-05-04T10:19:22.674Z,102222.91
2023-05-04T10:22:10.882Z,102222.03
2023-05-04T10:24:57.179Z,102222.94
2023-05-04T10:27:57.330Z,102221.13
2023-05-04T10:30:23.955Z,102209.72
2023-05-04T10:32:57.726Z,102217.72
2023-05-04T10:35:24.666Z,102209.75
2023-05-04T10:37:54.460Z,102209.28
2023-05-04T10:40:36.776Z,102208.28
2023-05-04T10:43:04.052Z,102203.34
2023-05-04T10:45:37.267Z,102201.78
2023-05-04T10:48:05.197Z,102195.59
2023-05-04T10:50:46.082Z,102197.09
2023-05-04T10:53:14.679Z,102197.94
2023-05-04T10:55:48.718Z,102191.16
2023-05-04T10:58:19.158Z,102188.66
2023-05-04T11:00:48.101Z,102183.09
2023-05-04T11:03:15.530Z,102176.28
2023-05-04T11:05:43.395Z,102182.22
2023-05-04T11:08:19.879Z,102171.63
2023-05-04T11:10:48.225Z,102166.47
2023-05-04T11:13:16.261Z,102161.88
2023-05-04T11:15:47.203Z,102170.88
2023-05-04T11:18:13.823Z,102170.81
2023-05-04T11:20:40.830Z,102153.91
2023-05-04T11:23:10.305Z,102156.31
2023-05-04T11:25:37.680Z,102153.16
2023-05-04T11:28:04.777Z,102155.34
2023-05-04T11:30:33.499Z,102150.28
2023-05-04T11:33:00.947Z,102155.75
2023-05-04T11:35:27.684Z,102152.94
2023-05-04T11:37:55.472Z,102154.25
2023-05-04T11:40:25.175Z,102144.19
2023-05-04T11:42:55.403Z,102144.16
2023-05-04T11:45:24.213Z,102148.66
2023-05-04T11:47:52.096Z,102142.78
2023-05-04T11:50:20.765Z,102138.28
2023-05-04T11:52:47.872Z,102133.16
2023-05-04T11:55:30.819Z,102125.28
2023-05-04T11:58:07.237Z,102127.88
2023-05-04T12:00:41.699Z,102133.16
2023-05-04T12:03:10.128Z,102123.53
2023-05-04T12:05:37.571Z,102122.63
2023-05-04T12:08:04.556Z,102125.25
2023-05-04T12:10:33.495Z,102126.97
2023-05-04T12:13:00.124Z,102122.63
2023-05-04T12:15:36.475Z,102125.84
2023-05-04T12:18:03.571Z,102128.22
2023-05-04T12:20:30.902Z,102119.72
2023-05-04T12:22:57.902Z,102124.38
2023-05-04T12:25:25.027Z,102112.06
2023-05-04T12:27:51.764Z,102106.69
2023-05-04T12:30:18.476Z,102103.84
2023-05-04T12:32:45.213Z,102112.91
2023-05-04T12:35:11.942Z,102118.97
2023-05-04T12:37:38.404Z,102113.84
2023-05-04T12:40:21.005Z,102113.81
2023-05-04T12:42:54.847Z,102111.94
2023-05-04T12:45:22.699Z,102103.19
2023-05-04T12:47:51.222Z,102096.22
2023-05-04T12:50:18.052Z,102093.47
2023-05-04T12:52:44.686Z,102101.47
2023-05-04T12:55:11.289Z,102094.09
2023-05-04T12:57:37.891Z,102086.88
2023-05-04T13:00:07.228Z,102083.00
2023-05-04T13:02:34.255Z,102077.69
2023-05-04T13:05:00.904Z,102073.31
2023-05-04T13:07:27.699Z,102071.44
2023-05-04T13:09:54.167Z,102087.22
2023-05-04T13:12:20.646Z,102083.00
2023-05-04T13:14:47.631Z,102076.13
2023-05-04T13:17:15.112Z,102071.16
2023-05-04T13:19:41.700Z,102068.75
2023-05-04T13:22:08.288Z,102075.97
2023-05-04T13:24:34.964Z,102078.56
2023-05-04T13:27:01.570Z,102065.19
2023-05-04T13:29:28.057Z,102066.13
2023-05-04T13:31:54.646Z,102060.91
2023-05-04T13:34:21.220Z,102062.59
2023-05-04T13:36:48.138Z,102058.38
2023-05-04T13:39:14.910Z,102054.75
2023-05-04T13:41:41.471Z,102052.66
2023-05-04T13:44:08.211Z,102034.16
2023-05-04T13:46:36.202Z,102037.16
2023-05-04T13:49:03.111Z,102042.41
2023-05-04T13:51:29.839Z,102034.16
2023-05-04T13:53:56.281Z,102027.41
2023-05-04T13:56:23.368Z,102021.31
2023-05-04T13:58:49.994Z,102014.94
2023-05-04T14:01:16.511Z,102019.31
2023-05-04T14:03:43.093Z,102019.31
2023-05-04T14:06:09.624Z,102012.94
2023-05-04T14:08:36.176Z,102006.81
2023-05-04T14:11:03.000Z,102004.38
2023-05-04T14:13:29.470Z,102001.06
2023-05-04T14:15:55.910Z,101999.31
2023-05-04T14:18:22.408Z,101996.06
2023-05-04T14:20:49.054Z,101998.81
2023-05-04T14:23:16.172Z,102003.34
2023-05-04T14:25:44.022Z,101997.03
2023-05-04T14:28:10.853Z,101989.66
2023-05-04T14:30:37.319Z,102002.66
2023-05-04T14:33:04.028Z,101995.78
2023-05-04T14:35:31.724Z,102004.59
2023-05-04T14:37:58.180Z,101999.78
2023-05-04T14:40:24.608Z,102007.00
2023-05-04T14:42:51.328Z,101998.31
2023-05-04T14:45:17.956Z,102009.53
2023-05-04T14:47:44.548Z,102002.22
2023-05-04T14:50:12.166Z,102004.84
2023-05-04T14:52:38.885Z,101999.03
2023-05-04T14:55:09.036Z,101999.94
2023-05-04T14:57:35.617Z,101997.66
2023-05-04T15:00:07.846Z,101985.56
2023-05-04T15:02:35.888Z,101987.06
2023-05-04T15:05:03.017Z,101992.75
2023-05-04T15:07:29.516Z,101980.41
2023-05-04T15:09:56.126Z,101976.47
2023-05-04T15:12:22.876Z,101977.38
2023-05-04T15:14:49.367Z,101970.63
2023-05-04T15:17:17.225Z,101965.75
2023-05-04T15:19:45.328Z,101968.06
2023-05-04T15:22:11.797Z,101965.91
2023-05-04T15:24:41.804Z,101960.66
2023-05-04T15:27:08.275Z,101964.09
2023-05-04T15:29:34.738Z,101962.22
2023-05-04T15:32:01.295Z,101970.78
2023-05-04T15:34:27.812Z,101959.09
2023-05-04T15:36:55.050Z,101965.88
2023-05-04T15:39:21.899Z,101967.53
2023-05-04T15:41:48.359Z,101954.56
2023-05-04T15:44:15.314Z,101951.50
2023-05-04T15:46:43.262Z,101954.94
2023-05-04T15:49:09.864Z,101946.81
2023-05-04T15:51:36.547Z,101950.78
2023-05-04T15:54:03.842Z,101947.97
2023-05-04T15:56:30.273Z,101941.41
2023-05-04T15:58:56.974Z,101942.34
2023-05-04T16:01:23.476Z,101948.16
2023-05-04T16:03:50.173Z,101942.22
2023-05-04T16:06:17.959Z,101943.78
2023-05-04T16:08:44.689Z,101954.03
2023-05-04T16:11:11.334Z,101941.53
2023-05-04T16:13:37.859Z,101943.66
2023-05-04T16:16:04.768Z,101942.63
2023-05-04T16:18:31.684Z,101941.50
2023-05-04T16:20:58.304Z,101936.28
2023-05-04T16:23:24.845Z,101945.56
2023-05-04T16:25:51.875Z,101931.25
2023-05-04T16:28:18.434Z,101929.56
2023-05-04T16:30:45.757Z,101929.66
2023-05-04T16:33:12.857Z,101929.38
2023-05-04T16:35:39.377Z,101926.03
2023-05-04T16:38:06.278Z,101919.81
2023-05-04T16:40:33.051Z,101917.34
2023-05-04T16:42:59.796Z,101915.66
2023-05-04T16:45:31.231Z,101922.75
2023-05-04T16:47:58.911Z,101920.94
2023-05-04T16:50:25.567Z,101914.44
2023-05-04T16:52:52.023Z,101912.31
2023-05-04T16:55:19.124Z,101915.19
2023-05-04T16:57:46.084Z,101910.53
2023-05-04T17:00:13.644Z,101911.25
2023-05-04T17:02:40.304Z,101909.34
2023-05-04T17:05:10.109Z,101920.75
2023-05-04T17:07:39.588Z,101904.94
2023-05-04T17:10:07.819Z,101909.56
2023-05-04T17:12:34.865Z,101906.56
2023-05-04T17:15:01.571Z,101904.59
2023-05-04T17:17:28.469Z,101897.84
2023-05-04T17:19:55.208Z,101903.75
2023-05-04T17:22:21.994Z,101895.25
2023-05-04T17:24:49.450Z,101908.06
2023-05-04T17:27:18.606Z,101911.56
2023-05-04T17:29:57.534Z,101911.56
2023-05-04T17:35:25.805Z,101906.78
2023-05-04T17:38:03.752Z,101905.44
2023-05-04T17:40:30.687Z,101903.78
2023-05-04T17:43:00.349Z,101903.50
2023-05-04T17:45:27.022Z,101902.97
2023-05-04T17:47:53.839Z,101909.41
2023-05-04T17:50:23.832Z,101912.28
2023-05-04T17:52:56.988Z,101911.16
2023-05-04T17:55:27.673Z,101920.31
2023-05-04T17:57:54.577Z,101910.00
2023-05-04T18:00:21.523Z,101919.78
2023-05-04T18:02:48.142Z,101919.94
2023-05-04T18:05:14.988Z,101919.94
2023-05-04T18:07:41.626Z,101908.47
2023-05-04T18:10:08.534Z,101907.81
2023-05-04T18:12:38.039Z,101917.69
2023-05-04T18:15:08.281Z,101921.13
2023-05-04T18:17:37.688Z,101917.00
2023-05-04T18:20:06.861Z,101919.78
2023-05-04T18:22:34.158Z,101929.72
2023-05-04T18:25:01.421Z,101928.69
2023-05-04T18:27:34.779Z,101926.19
2023-05-04T18:30:02.134Z,101914.97
2023-05-04T18:32:28.685Z,101916.69
2023-05-04T18:34:58.027Z,101921.41
2023-05-04T18:37:25.516Z,101920.31
2023-05-04T18:39:52.023Z,101918.91
2023-05-04T18:42:18.584Z,101922.16
2023-05-04T18:44:45.159Z,101919.91
2023-05-04T18:47:11.682Z,101924.88
2023-05-04T18:49:38.265Z,101918.72
2023-05-04T18:52:05.060Z,101925.19
2023-05-04T18:54:34.605Z,101931.09
2023-05-04T18:57:01.212Z,101935.00
2023-05-04T18:59:27.770Z,101936.81
2023-05-04T19:01:54.392Z,101932.09
2023-05-04T19:04:20.917Z,101930.50
2023-05-04T19:06:47.762Z,101934.19
2023-05-04T19:09:15.092Z,101940.66
2023-05-04T19:11:41.733Z,101933.66
2023-05-04T19:14:08.253Z,101937.84
2023-05-04T19:16:35.090Z,101933.09
2023-05-04T19:19:01.608Z,101928.84
2023-05-04T19:21:28.578Z,101924.69
2023-05-04T19:23:55.129Z,101938.03
2023-05-04T19:26:22.036Z,101941.91
2023-05-04T19:28:48.631Z,101939.34
2023-05-04T19:31:15.588Z,101936.75
2023-05-04T19:33:48.457Z,101941.94
2023-05-04T19:36:16.948Z,101944.56
2023-05-04T19:38:43.786Z,101952.72
2023-05-04T19:41:10.563Z,101953.91
2023-05-04T19:43:38.869Z,101951.66
2023-05-04T19:46:05.749Z,101953.44
2023-05-04T19:48:33.038Z,101950.72
2023-05-04T19:50:59.558Z,101948.38
2023-05-04T19:53:26.164Z,101948.25
2023-05-04T19:55:52.921Z,101943.47
2023-05-04T19:58:19.436Z,101954.50
2023-05-04T20:00:45.973Z,101946.81
2023-05-04T20:03:12.488Z,101946.41
2023-05-04T20:05:39.045Z,101948.75
2023-05-04T20:08:05.588Z,101946.75
2023-05-04T20:10:32.623Z,101955.28
2023-05-04T20:12:59.179Z,101948.78
2023-05-04T20:15:26.078Z,101951.13
2023-05-04T20:17:53.045Z,101938.31
2023-05-04T20:20:21.510Z,101951.56
2023-05-04T20:22:51.984Z,101945.06
2023-05-04T20:25:20.117Z,101943.19
2023-05-04T20:27:48.697Z,101939.28
2023-05-04T20:30:15.702Z,101940.91
2023-05-04T20:32:42.732Z,101946.31
2023-05-04T20:35:09.554Z,101946.56
2023-05-04T20:37:36.386Z,101956.91
2023-05-04T20:40:02.965Z,101954.06
2023-05-04T20:42:29.410Z,101959.31
2023-05-04T20:44:56.084Z,101957.25
2023-05-04T20:47:22.655Z,101949.78
2023-05-04T20:49:49.355Z,101951.66
2023-05-04T20:52:16.074Z,101960.63
2023-05-04T20:54:44.907Z,101966.75
2023-05-04T20:57:11.501Z,101960.69
2023-05-04T20:59:38.187Z,101960.44
2023-05-04T21:02:05.006Z,101956.88
2023-05-04T21:04:31.555Z,101954.81
2023-05-04T21:06:58.247Z,101948.31
2023-05-04T21:09:26.378Z,101946.56
2023-05-04T21:11:52.936Z,101936.97
2023-05-04T21:14:19.985Z,101931.38
2023-05-04T21:16:46.518Z,101927.94
2023-05-04T21:19:13.028Z,101921.75
2023-05-04T21:21:41.376Z,101921.03
2023-05-04T21:24:14.477Z,101913.81
2023-05-04T21:26:41.700Z,101925.28
2023-05-04T21:29:13.120Z,101926.19
2023-05-04T21:31:40.667Z,101921.91
2023-05-04T21:34:07.799Z,101923.22
2023-05-04T21:36:34.726Z,101911.97
2023-05-04T21:39:01.405Z,101917.44
2023-05-04T21:41:27.983Z,101916.19
2023-05-04T21:43:54.808Z,101910.53
2023-05-04T21:46:21.438Z,101910.34
2023-05-04T21:48:48.409Z,101902.81
2023-05-04T21:51:15.000Z,101902.41
2023-05-04T21:53:44.777Z,101914.69
2023-05-04T21:56:11.837Z,101914.78
2023-05-04T21:58:40.701Z,101909.25
2023-05-04T22:01:08.260Z,101914.47
2023-05-04T22:03:35.618Z,101913.63
2023-05-04T22:06:02.202Z,101915.22
2023-05-04T22:08:29.117Z,101912.56
2023-05-04T22:10:57.177Z,101901.13
2023-05-04T22:13:23.743Z,101915.22
2023-05-04T22:15:50.944Z,101910.63
2023-05-04T22:18:18.198Z,101911.78
2023-05-04T22:20:45.297Z,101905.59
2023-05-04T22:23:12.086Z,101906.38
2023-05-04T22:25:39.091Z,101905.63
2023-05-04T22:28:05.896Z,101909.84
2023-05-04T22:30:32.589Z,101905.16
2023-05-04T22:32:59.177Z,101910.44
2023-05-04T22:35:25.698Z,101917.72
2023-05-04T22:37:52.247Z,101907.06
2023-05-04T22:40:18.959Z,101916.84
2023-05-04T22:42:45.690Z,101923.09
2023-05-04T22:45:14.122Z,101925.50
2023-05-04T22:47:44.311Z,101918.44
2023-05-04T22:50:11.151Z,101919.78
2023-05-04T22:52:38.241Z,101922.25
2023-05-04T22:55:05.828Z,101924.13
2023-05-04T22:57:33.405Z,101921.38
2023-05-04T22:59:59.866Z,101915.00
2023-05-04T23:02:36.299Z,101919.88
2023-05-04T23:05:04.831Z,101919.25
2023-05-04T23:07:31.632Z,101928.09
2023-05-04T23:09:58.245Z,101932.69
2023-05-04T23:12:25.568Z,101927.56
2023-05-04T23:14:55.025Z,101924.00
2023-05-04T23:17:22.056Z,101931.72
2023-05-04T23:19:48.586Z,101922.75
2023-05-04T23:22:15.126Z,101929.78
2023-05-04T23:24:42.301Z,101923.59
2023-05-04T23:27:08.835Z,101925.72
2023-05-04T23:29:35.575Z,101922.72
2023-05-04T23:32:02.088Z,101931.53
2023-05-04T23:34:28.574Z,101922.13
2023-05-04T23:36:55.201Z,101919.38
2023-05-04T23:39:22.225Z,101920.47
2023-05-04T23:41:49.169Z,101921.44
2023-05-04T23:44:16.557Z,101925.25
2023-05-04T23:46:43.770Z,101919.09
2023-05-04T23:49:10.323Z,101915.16
2023-05-04T23:51:36.840Z,101919.22
2023-05-04T23:54:03.435Z,101916.69
2023-05-04T23:56:31.291Z,101913.88
2023-05-04T23:58:57.787Z,101909.56
